createdAt,value
2022-12-09T00:02:19.165Z,37.29
2022-12-09T00:04:46.122Z,37.11
2022-12-09T00:07:12.886Z,37.21
2022-12-09T00:09:39.899Z,36.97
2022-12-09T00:12:06.697Z,37.06
2022-12-09T00:14:33.313Z,36.97
2022-12-09T00:17:00.393Z,37.01
2022-12-09T00:19:27.236Z,36.83
2022-12-09T00:21:53.931Z,36.85
2022-12-09T00:24:20.522Z,37.25
2022-12-09T00:26:47.356Z,36.79
2022-12-09T00:29:14.245Z,36.99
2022-12-09T00:31:41.156Z,36.71
2022-12-09T00:34:12.014Z,37.01
2022-12-09T00:36:39.461Z,36.72
2022-12-09T00:39:06.088Z,36.90
2022-12-09T00:41:33.077Z,36.79
2022-12-09T00:43:59.874Z,36.66
2022-12-09T00:46:26.938Z,36.61
2022-12-09T00:48:53.740Z,36.37
2022-12-09T00:51:23.686Z,36.54
2022-12-09T00:53:54.676Z,36.70
2022-12-09T00:56:23.000Z,36.36
2022-12-09T00:58:49.631Z,36.18
2022-12-09T01:01:16.348Z,36.29
2022-12-09T01:03:43.400Z,36.12
2022-12-09T01:06:12.267Z,36.43
2022-12-09T01:08:39.669Z,36.21
2022-12-09T01:11:17.380Z,36.38
2022-12-09T01:13:46.117Z,36.09
2022-12-09T01:16:24.898Z,36.25
2022-12-09T01:18:54.065Z,36.22
2022-12-09T01:21:21.268Z,36.30
2022-12-09T01:23:48.049Z,36.37
2022-12-09T01:26:14.872Z,36.04
2022-12-09T01:28:41.597Z,35.94
2022-12-09T01:31:17.882Z,36.20
2022-12-09T01:33:44.885Z,36.20
2022-12-09T01:36:15.735Z,35.95
2022-12-09T01:38:43.110Z,36.27
2022-12-09T01:41:09.690Z,36.37
2022-12-09T01:43:38.832Z,36.38
2022-12-09T01:46:06.274Z,36.36
2022-12-09T01:48:44.026Z,36.56
2022-12-09T01:51:16.889Z,36.37
2022-12-09T01:53:48.344Z,36.50
2022-12-09T01:56:35.982Z,37.36
2022-12-09T01:59:08.265Z,38.21
2022-12-09T02:01:35.157Z,39.13
2022-12-09T02:04:03.072Z,39.27
2022-12-09T02:06:29.981Z,39.76
2022-12-09T02:08:58.040Z,40.55
2022-12-09T02:12:06.164Z,40.79
2022-12-09T02:14:40.378Z,41.47
2022-12-09T02:17:22.176Z,41.55
2022-12-09T02:20:01.470Z,41.36
2022-12-09T02:22:42.275Z,41.52
2022-12-09T02:25:25.122Z,41.89
2022-12-09T02:28:10.249Z,42.27
2022-12-09T02:30:52.929Z,42.54
2022-12-09T02:33:33.334Z,42.62
2022-12-09T02:36:09.273Z,43.19
2022-12-09T02:38:40.983Z,43.03
2022-12-09T02:41:19.617Z,42.44
2022-12-09T02:43:53.808Z,41.74
2022-12-09T02:46:26.608Z,41.05
2022-12-09T02:48:58.547Z,40.25
2022-12-09T02:51:29.293Z,40.22
2022-12-09T02:54:07.479Z,39.87
2022-12-09T02:56:35.793Z,39.31
2022-12-09T02:59:03.595Z,39.20
2022-12-09T03:01:46.760Z,38.71
2022-12-09T03:04:20.228Z,38.44
2022-12-09T03:06:53.086Z,38.26
2022-12-09T03:09:25.807Z,38.31
2022-12-09T03:11:55.058Z,37.82
2022-12-09T03:14:45.408Z,37.62
2022-12-09T03:17:20.284Z,37.62
2022-12-09T03:19:55.424Z,37.54
2022-12-09T03:22:28.160Z,37.18
2022-12-09T03:25:06.976Z,37.29
2022-12-09T03:27:58.539Z,37.05
2022-12-09T03:30:25.408Z,37.24
2022-12-09T03:32:55.750Z,37.18
2022-12-09T03:35:29.144Z,36.67
2022-12-09T03:37:57.623Z,36.88
2022-12-09T03:40:27.840Z,37.02
2022-12-09T03:43:05.947Z,36.78
2022-12-09T03:45:33.260Z,37.15
2022-12-09T03:48:01.591Z,37.39
2022-12-09T03:50:34.503Z,37.30
2022-12-09T03:53:14.196Z,37.10
2022-12-09T03:55:53.326Z,36.97
2022-12-09T03:58:20.738Z,36.60
2022-12-09T04:00:49.320Z,36.50
2022-12-09T04:03:19.034Z,36.41
2022-12-09T04:05:45.774Z,36.47
2022-12-09T04:08:12.947Z,36.59
2022-12-09T04:10:39.679Z,36.69
2022-12-09T04:13:06.793Z,36.45
2022-12-09T04:15:33.485Z,36.41
2022-12-09T04:18:00.552Z,36.91
2022-12-09T04:20:27.426Z,37.42
2022-12-09T04:22:55.614Z,38.05
2022-12-09T04:25:22.314Z,39.38
2022-12-09T04:27:49.499Z,39.96
2022-12-09T04:30:17.131Z,39.96
2022-12-09T04:32:44.152Z,39.74
2022-12-09T04:35:11.320Z,39.34
2022-12-09T04:37:38.119Z,38.65
2022-12-09T04:40:06.650Z,38.40
2022-12-09T04:42:33.993Z,38.94
2022-12-09T04:45:00.946Z,39.08
2022-12-09T04:47:27.927Z,38.62
2022-12-09T04:49:54.898Z,38.48
2022-12-09T04:52:21.678Z,38.57
2022-12-09T04:54:51.058Z,38.35
2022-12-09T04:57:18.587Z,37.96
2022-12-09T04:59:45.811Z,37.77
2022-12-09T05:02:12.832Z,37.80
2022-12-09T05:04:39.624Z,38.08
2022-12-09T05:07:06.439Z,37.53
2022-12-09T05:09:34.437Z,37.66
2022-12-09T05:12:01.217Z,37.35
2022-12-09T05:14:28.631Z,37.52
2022-12-09T05:16:55.432Z,37.44
2022-12-09T05:19:22.271Z,37.18
2022-12-09T05:21:49.318Z,37.26
2022-12-09T05:24:16.262Z,36.89
2022-12-09T05:26:43.475Z,36.97
2022-12-09T05:29:10.556Z,36.70
2022-12-09T05:31:37.719Z,37.13
2022-12-09T05:34:04.804Z,36.76
2022-12-09T05:36:31.823Z,37.03
2022-12-09T05:38:58.685Z,36.77
2022-12-09T05:41:27.913Z,37.05
2022-12-09T05:43:54.832Z,37.09
2022-12-09T05:46:22.355Z,36.84
2022-12-09T05:48:49.134Z,36.67
2022-12-09T05:51:22.568Z,36.94
2022-12-09T05:53:49.331Z,36.67
2022-12-09T05:56:17.884Z,36.87
2022-12-09T05:58:47.618Z,36.86
2022-12-09T06:01:15.594Z,36.73
2022-12-09T06:03:43.167Z,36.75
2022-12-09T06:06:13.588Z,36.66
2022-12-09T06:08:42.095Z,36.89
2022-12-09T06:11:12.817Z,36.92
2022-12-09T06:13:40.014Z,37.00
2022-12-09T06:16:07.719Z,37.86
2022-12-09T06:18:36.125Z,38.09
2022-12-09T06:21:08.113Z,38.02
2022-12-09T06:23:37.273Z,38.00
2022-12-09T06:26:04.942Z,37.96
2022-12-09T06:28:32.134Z,37.94
2022-12-09T06:30:59.348Z,37.68
2022-12-09T06:33:53.053Z,37.59
2022-12-09T06:36:13.799Z,37.32
2022-12-09T06:38:40.726Z,37.12
2022-12-09T06:41:12.387Z,37.41
2022-12-09T06:43:40.142Z,37.15
2022-12-09T06:46:14.645Z,37.02
2022-12-09T06:48:41.906Z,37.28
2022-12-09T06:51:08.914Z,37.25
2022-12-09T06:53:36.056Z,36.87
2022-12-09T06:56:11.154Z,36.90
2022-12-09T06:58:39.190Z,36.65
2022-12-09T07:01:07.904Z,37.13
2022-12-09T07:03:34.993Z,36.65
2022-12-09T07:06:03.511Z,36.80
2022-12-09T07:08:30.782Z,36.54
2022-12-09T07:10:58.038Z,37.00
2022-12-09T07:13:25.327Z,36.76
2022-12-09T07:15:52.273Z,36.98
2022-12-09T07:18:19.361Z,36.67
2022-12-09T07:20:46.495Z,36.68
2022-12-09T07:23:13.759Z,36.64
2022-12-09T07:25:43.427Z,36.78
2022-12-09T07:28:10.340Z,36.66
2022-12-09T07:30:37.995Z,36.23
2022-12-09T07:33:04.838Z,36.14
2022-12-09T07:35:31.591Z,36.14
2022-12-09T07:37:58.657Z,36.12
2022-12-09T07:40:27.142Z,36.27
2022-12-09T07:42:59.146Z,36.22
2022-12-09T07:45:26.909Z,36.29
2022-12-09T07:47:53.790Z,36.29
2022-12-09T07:50:21.035Z,36.03
2022-12-09T07:52:47.612Z,36.20
2022-12-09T07:55:15.068Z,36.35
2022-12-09T07:57:42.469Z,36.62
2022-12-09T08:00:10.089Z,37.29
2022-12-09T08:02:39.692Z,37.08
2022-12-09T08:05:08.634Z,37.10
2022-12-09T08:07:40.181Z,36.79
2022-12-09T08:10:13.366Z,36.74
2022-12-09T08:12:40.708Z,36.44
2022-12-09T08:15:08.101Z,36.90
2022-12-09T08:17:35.208Z,37.48
2022-12-09T08:20:02.416Z,37.58
2022-12-09T08:22:29.760Z,37.40
2022-12-09T08:24:58.073Z,37.81
2022-12-09T08:27:24.912Z,37.62
2022-12-09T08:29:51.633Z,37.31
2022-12-09T08:32:18.710Z,37.16
2022-12-09T08:34:45.893Z,36.68
2022-12-09T08:37:12.762Z,36.51
2022-12-09T08:39:41.843Z,36.31
2022-12-09T08:42:08.600Z,36.42
2022-12-09T08:44:37.561Z,36.25
2022-12-09T08:47:05.081Z,35.99
2022-12-09T08:49:32.443Z,36.12
2022-12-09T08:52:01.900Z,36.11
2022-12-09T08:54:28.815Z,36.13
2022-12-09T08:56:57.051Z,36.86
2022-12-09T08:59:24.695Z,36.75
2022-12-09T09:01:51.815Z,37.10
2022-12-09T09:04:20.897Z,37.03
2022-12-09T09:06:50.819Z,37.16
2022-12-09T09:09:22.302Z,37.49
2022-12-09T09:11:50.280Z,37.60
2022-12-09T09:14:17.438Z,37.60
2022-12-09T09:16:45.362Z,37.48
2022-12-09T09:19:18.589Z,37.54
2022-12-09T09:21:45.767Z,37.42
2022-12-09T09:24:16.813Z,37.17
2022-12-09T09:26:46.964Z,36.83
2022-12-09T09:29:15.980Z,36.73
2022-12-09T09:31:43.339Z,36.44
2022-12-09T09:34:11.319Z,36.13
2022-12-09T09:36:39.675Z,36.35
2022-12-09T09:39:06.849Z,36.31
2022-12-09T09:41:53.938Z,36.19
2022-12-09T09:44:38.063Z,36.26
2022-12-09T09:49:50.214Z,35.82
2022-12-09T09:52:20.496Z,35.66
2022-12-09T09:54:47.395Z,35.60
2022-12-09T09:57:34.757Z,35.75
2022-12-09T10:00:26.994Z,35.70
2022-12-09T10:03:09.544Z,35.76
2022-12-09T10:05:56.338Z,35.98
2022-12-09T10:08:59.329Z,36.16
2022-12-09T10:11:37.553Z,36.24
2022-12-09T10:14:15.410Z,35.97
2022-12-09T10:16:59.428Z,36.20
2022-12-09T10:19:26.183Z,36.10
2022-12-09T10:21:54.719Z,36.26
2022-12-09T10:24:39.245Z,36.45
2022-12-09T10:27:16.646Z,36.24
2022-12-09T10:29:52.915Z,36.27
2022-12-09T10:32:22.237Z,36.35
2022-12-09T10:34:49.092Z,35.98
2022-12-09T10:37:25.233Z,35.84
2022-12-09T10:40:04.143Z,36.16
2022-12-09T10:42:56.308Z,35.73
2022-12-09T10:45:23.117Z,35.40
2022-12-09T10:47:53.054Z,35.51
2022-12-09T10:50:34.189Z,35.63
2022-12-09T10:53:12.110Z,35.64
2022-12-09T10:55:43.388Z,35.48
2022-12-09T10:58:31.805Z,35.36
2022-12-09T11:01:04.508Z,35.03
2022-12-09T11:03:51.601Z,35.19
2022-12-09T11:06:51.663Z,35.34
2022-12-09T11:09:31.241Z,35.42
2022-12-09T11:12:02.235Z,35.13
2022-12-09T11:14:39.763Z,35.38
2022-12-09T11:17:28.394Z,35.18
2022-12-09T11:20:12.077Z,35.27
2022-12-09T11:22:42.305Z,35.20
2022-12-09T11:25:21.022Z,35.24
2022-12-09T11:27:56.316Z,34.90
2022-12-09T11:31:20.058Z,35.17
2022-12-09T11:33:47.608Z,34.94
2022-12-09T11:36:32.591Z,34.77
2022-12-09T11:39:12.102Z,34.70
2022-12-09T11:42:05.272Z,34.90
2022-12-09T11:44:33.931Z,34.84
2022-12-09T11:47:05.476Z,35.14
2022-12-09T11:49:36.743Z,34.68
2022-12-09T11:52:05.620Z,34.95
2022-12-09T11:54:38.835Z,34.64
2022-12-09T11:57:12.227Z,34.81
2022-12-09T11:59:50.720Z,34.95
2022-12-09T12:02:35.172Z,34.57
2022-12-09T12:05:27.815Z,34.57
2022-12-09T12:08:08.077Z,34.44
2022-12-09T12:10:40.149Z,34.73
2022-12-09T12:13:12.174Z,34.45
2022-12-09T12:16:08.699Z,34.70
2022-12-09T12:19:13.305Z,34.72
2022-12-09T12:21:39.898Z,34.49
2022-12-09T12:24:24.851Z,34.28
2022-12-09T12:27:00.159Z,34.22
2022-12-09T12:29:40.814Z,34.32
2022-12-09T12:32:13.618Z,34.11
2022-12-09T12:34:52.251Z,34.19
2022-12-09T12:37:35.341Z,34.24
2022-12-09T12:40:11.176Z,34.24
2022-12-09T12:43:24.270Z,34.16
2022-12-09T12:46:17.129Z,33.97
2022-12-09T12:49:28.872Z,34.12
2022-12-09T12:52:54.343Z,34.31
2022-12-09T12:55:26.519Z,34.12
2022-12-09T12:58:19.509Z,34.30
2022-12-09T13:01:02.347Z,34.31
2022-12-09T13:03:47.783Z,34.25
2022-12-09T13:06:18.564Z,34.20
2022-12-09T13:09:02.872Z,34.25
2022-12-09T13:12:02.995Z,33.87
2022-12-09T13:14:52.186Z,34.10
2022-12-09T13:17:24.051Z,34.16
2022-12-09T13:19:54.786Z,33.78
2022-12-09T13:22:32.695Z,34.24
2022-12-09T13:25:00.419Z,33.98
2022-12-09T13:27:37.906Z,33.95
2022-12-09T13:30:13.299Z,33.81
2022-12-09T13:33:03.958Z,33.89
2022-12-09T13:35:57.807Z,33.70
2022-12-09T13:38:39.819Z,33.80
2022-12-09T13:41:31.345Z,33.76
2022-12-09T13:44:11.414Z,33.97
2022-12-09T13:46:38.689Z,33.76
2022-12-09T13:49:29.623Z,33.82
2022-12-09T13:51:56.223Z,33.70
2022-12-09T13:54:28.620Z,33.53
2022-12-09T13:57:49.707Z,33.46
2022-12-09T14:00:18.438Z,33.65
2022-12-09T14:03:37.395Z,33.12
2022-12-09T14:06:18.606Z,33.32
2022-12-09T14:08:50.696Z,33.30
2022-12-09T14:11:44.171Z,33.08
2022-12-09T14:14:22.806Z,33.33
2022-12-09T14:16:56.073Z,33.51
2022-12-09T14:19:25.637Z,33.51
2022-12-09T14:22:17.046Z,33.46
2022-12-09T14:24:54.296Z,33.53
2022-12-09T14:27:32.976Z,33.51
2022-12-09T14:30:00.890Z,33.77
2022-12-09T14:32:49.342Z,34.07
2022-12-09T14:35:15.964Z,34.05
2022-12-09T14:37:45.346Z,33.99
2022-12-09T14:40:14.705Z,32.57
2022-12-09T14:42:55.535Z,31.92
2022-12-09T14:45:29.904Z,31.69
2022-12-09T14:47:56.860Z,32.18
2022-12-09T14:50:27.522Z,32.87
2022-12-09T14:52:55.915Z,33.17
2022-12-09T14:55:24.836Z,33.48
2022-12-09T14:57:54.317Z,33.83
2022-12-09T15:00:31.466Z,33.70
2022-12-09T15:03:30.662Z,34.20
2022-12-09T15:06:05.349Z,34.26
2022-12-09T15:08:35.947Z,33.86
2022-12-09T15:11:11.901Z,34.06
2022-12-09T15:13:42.111Z,34.43
2022-12-09T15:16:15.298Z,34.96
2022-12-09T15:18:45.057Z,35.49
2022-12-09T15:21:27.027Z,35.91
2022-12-09T15:23:54.670Z,36.07
2022-12-09T15:26:24.538Z,35.91
2022-12-09T15:28:53.388Z,35.88
2022-12-09T15:31:23.293Z,35.62
2022-12-09T15:36:15.890Z,35.82
2022-12-09T15:38:45.399Z,35.74
2022-12-09T15:41:30.814Z,36.01
2022-12-09T15:44:02.308Z,35.98
2022-12-09T15:46:31.423Z,36.68
2022-12-09T15:49:01.939Z,36.37
2022-12-09T15:51:29.447Z,36.90
2022-12-09T15:54:06.435Z,36.92
2022-12-09T15:56:39.739Z,36.86
2022-12-09T15:59:12.265Z,36.71
2022-12-09T16:01:39.150Z,37.31
2022-12-09T16:04:08.735Z,37.61
2022-12-09T16:06:37.630Z,37.82
2022-12-09T16:09:13.470Z,38.20
2022-12-09T16:11:49.420Z,38.42
2022-12-09T16:14:17.702Z,38.83
2022-12-09T16:16:50.248Z,38.59
2022-12-09T16:19:24.583Z,38.80
2022-12-09T16:21:57.527Z,38.99
2022-12-09T16:24:24.466Z,38.94
2022-12-09T16:26:53.602Z,39.19
2022-12-09T16:29:31.770Z,39.56
2022-12-09T16:32:34.168Z,39.77
2022-12-09T16:35:19.766Z,39.95
2022-12-09T16:37:58.593Z,40.27
2022-12-09T16:40:25.303Z,40.42
2022-12-09T16:43:15.143Z,41.06
2022-12-09T16:45:48.308Z,41.29
2022-12-09T16:48:17.047Z,41.38
2022-12-09T16:50:51.203Z,41.43
2022-12-09T16:53:24.105Z,41.71
2022-12-09T16:55:57.329Z,41.97
2022-12-09T16:58:24.017Z,42.21
2022-12-09T17:00:50.824Z,42.02
2022-12-09T17:03:39.986Z,42.60
2022-12-09T17:06:09.494Z,42.52
2022-12-09T17:08:37.828Z,42.48
2022-12-09T17:11:04.543Z,42.96
2022-12-09T17:13:31.073Z,42.93
2022-12-09T17:16:01.746Z,43.17
2022-12-09T17:18:29.430Z,43.38
2022-12-09T17:21:07.653Z,43.43
2022-12-09T17:23:39.565Z,43.18
2022-12-09T17:26:09.404Z,43.53
2022-12-09T17:28:36.837Z,43.63
2022-12-09T17:31:10.673Z,43.79
2022-12-09T17:33:37.568Z,44.03
2022-12-09T17:36:05.083Z,43.67
2022-12-09T17:38:31.733Z,44.09
2022-12-09T17:41:04.207Z,43.82
2022-12-09T17:43:30.896Z,44.18
2022-12-09T17:46:05.066Z,44.25
2022-12-09T17:48:33.256Z,43.82
2022-12-09T17:51:06.626Z,43.22
2022-12-09T17:53:39.186Z,43.30
2022-12-09T17:56:14.820Z,43.25
2022-12-09T17:58:42.743Z,43.38
2022-12-09T18:01:17.631Z,43.28
2022-12-09T18:04:06.255Z,43.21
2022-12-09T18:06:34.053Z,43.51
2022-12-09T18:09:01.791Z,43.51
2022-12-09T18:11:28.812Z,43.53
2022-12-09T18:13:55.405Z,43.33
2022-12-09T18:16:22.082Z,43.30
2022-12-09T18:18:50.272Z,43.31
2022-12-09T18:21:19.771Z,43.24
2022-12-09T18:23:46.694Z,43.29
2022-12-09T18:26:17.516Z,43.25
2022-12-09T18:28:44.492Z,43.17
2022-12-09T18:31:13.541Z,43.48
2022-12-09T18:33:40.724Z,43.34
2022-12-09T18:36:10.360Z,43.40
2022-12-09T18:38:37.824Z,43.51
2022-12-09T18:41:05.598Z,43.54
2022-12-09T18:43:36.318Z,43.32
2022-12-09T18:46:12.750Z,42.90
2022-12-09T18:48:40.040Z,42.74
2022-12-09T18:51:13.516Z,42.13
2022-12-09T18:53:40.863Z,42.14
2022-12-09T18:56:07.851Z,41.48
2022-12-09T18:58:57.890Z,41.59
2022-12-09T19:01:25.552Z,40.53
2022-12-09T19:03:54.157Z,39.82
2022-12-09T19:06:22.673Z,39.16
2022-12-09T19:08:53.735Z,38.61
2022-12-09T19:11:28.181Z,38.24
2022-12-09T19:13:55.942Z,37.67
2022-12-09T19:16:23.436Z,37.32
2022-12-09T19:18:50.708Z,36.78
2022-12-09T19:21:19.143Z,36.45
2022-12-09T19:23:46.628Z,36.29
2022-12-09T19:26:24.034Z,36.00
2022-12-09T19:28:53.501Z,35.81
2022-12-09T19:31:26.632Z,35.96
2022-12-09T19:33:55.194Z,35.68
2022-12-09T19:36:23.020Z,35.29
2022-12-09T19:38:50.835Z,35.54
2022-12-09T19:41:18.001Z,35.38
2022-12-09T19:43:45.188Z,35.09
2022-12-09T19:46:14.275Z,34.95
2022-12-09T19:48:46.363Z,35.17
2022-12-09T19:51:15.734Z,35.11
2022-12-09T19:53:43.551Z,34.94
2022-12-09T19:56:16.886Z,34.88
2022-12-09T19:58:44.683Z,35.16
2022-12-09T20:01:18.988Z,35.23
2022-12-09T20:03:48.031Z,35.55
2022-12-09T20:06:16.754Z,35.64
2022-12-09T20:08:45.586Z,35.90
2022-12-09T20:11:20.915Z,36.11
2022-12-09T20:13:48.256Z,36.06
2022-12-09T20:16:18.092Z,36.36
2022-12-09T20:18:46.725Z,36.61
2022-12-09T20:21:18.988Z,36.33
2022-12-09T20:23:46.873Z,36.62
2022-12-09T20:26:16.989Z,36.38
2022-12-09T20:28:46.387Z,36.61
2022-12-09T20:31:18.914Z,36.56
2022-12-09T20:33:56.467Z,36.55
2022-12-09T20:36:26.180Z,36.53
2022-12-09T20:38:55.499Z,36.35
2022-12-09T20:41:23.363Z,36.32
2022-12-09T20:43:51.785Z,36.67
2022-12-09T20:46:30.132Z,36.44
2022-12-09T20:48:57.869Z,36.80
2022-12-09T20:51:30.394Z,36.78
2022-12-09T20:54:01.815Z,36.76
2022-12-09T20:56:30.084Z,36.97
2022-12-09T20:58:57.672Z,36.84
2022-12-09T21:01:28.583Z,37.21
2022-12-09T21:03:57.473Z,37.21
2022-12-09T21:06:30.395Z,37.59
2022-12-09T21:09:03.326Z,37.49
2022-12-09T21:11:30.339Z,37.76
2022-12-09T21:14:01.869Z,37.97
2022-12-09T21:16:33.260Z,38.03
2022-12-09T21:19:02.516Z,38.10
2022-12-09T21:21:31.848Z,38.08
2022-12-09T21:24:01.452Z,38.13
2022-12-09T21:26:28.501Z,38.50
2022-12-09T21:28:56.354Z,38.73
2022-12-09T21:31:25.711Z,38.52
2022-12-09T21:33:55.520Z,38.70
2022-12-09T21:36:25.047Z,38.57
2022-12-09T21:38:52.372Z,38.78
2022-12-09T21:41:21.917Z,39.02
2022-12-09T21:43:48.883Z,38.88
2022-12-09T21:46:18.941Z,38.91
2022-12-09T21:48:52.547Z,39.18
2022-12-09T21:51:21.308Z,38.86
2022-12-09T21:53:48.858Z,39.20
2022-12-09T21:56:27.773Z,39.29
2022-12-09T21:58:56.424Z,39.03
2022-12-09T22:01:26.063Z,39.40
2022-12-09T22:03:53.298Z,39.24
2022-12-09T22:06:20.248Z,39.19
2022-12-09T22:08:47.058Z,39.14
2022-12-09T22:11:22.678Z,39.25
2022-12-09T22:13:50.006Z,39.18
2022-12-09T22:16:20.283Z,38.68
2022-12-09T22:18:47.992Z,38.54
2022-12-09T22:21:27.726Z,38.77
2022-12-09T22:23:57.953Z,38.85
2022-12-09T22:26:24.692Z,38.74
2022-12-09T22:28:51.606Z,38.88
2022-12-09T22:31:25.713Z,38.73
2022-12-09T22:33:57.134Z,38.95
2022-12-09T22:36:23.783Z,39.00
2022-12-09T22:38:50.781Z,38.58
2022-12-09T22:41:22.728Z,38.80
2022-12-09T22:43:50.106Z,38.75
2022-12-09T22:46:21.353Z,38.70
2022-12-09T22:48:50.947Z,38.78
2022-12-09T22:51:23.630Z,38.93
2022-12-09T22:53:52.580Z,39.03
2022-12-09T22:56:19.747Z,39.00
2022-12-09T22:58:46.867Z,39.33
2022-12-09T23:01:19.231Z,39.25
2022-12-09T23:03:46.707Z,39.41
2022-12-09T23:06:14.451Z,39.68
2022-12-09T23:08:42.647Z,39.64
2022-12-09T23:11:14.119Z,39.72
2022-12-09T23:13:41.570Z,39.55
2022-12-09T23:16:11.738Z,39.71
2022-12-09T23:18:38.787Z,39.87
2022-12-09T23:21:07.698Z,39.59
2022-12-09T23:23:34.499Z,40.01
2022-12-09T23:26:10.194Z,39.80
2022-12-09T23:28:45.325Z,39.97
2022-12-09T23:31:17.231Z,39.72
2022-12-09T23:33:45.603Z,39.59
2022-12-09T23:36:15.410Z,39.68
2022-12-09T23:38:42.824Z,39.78
2022-12-09T23:41:10.903Z,39.79
2022-12-09T23:43:38.457Z,39.52
2022-12-09T23:46:14.887Z,39.46
2022-12-09T23:48:43.541Z,39.72
2022-12-09T23:51:20.254Z,39.49
2022-12-09T23:53:50.016Z,39.54
2022-12-09T23:56:20.266Z,39.52
2022-12-09T23:58:48.002Z,39.27
